Wind Star — C6CA9 — position and weather

sailwx.info

Track history (hours):
 
Tides and Currents Weather Stations Pressure Air Temp Water Temp Dewpoint Dewpoint Depression Visibility Wind Speed Wind Dir Waves Ship Positions

Wind Star

Operator: Holland America Line

Last reported at 2015-Jul-01 19:26 UTC. Time now 2015-Jul-04 15:18 UTC.
Position N 36°58' E 027°14'.

Length 134 m; draft 4.1 m.

Type: Ship. MMSI: 309163000.

Date/timePositionNaut miles runAvg speedWind from/ knotsBaromVisibWave heightAir tempDewpointWater temp
2015-Jul-01 19:26N 36°58' E 027°14'75 1.5
2015-Jun-29 16:33N 36°20' E 025°54'10 9.9
2015-Jun-29 15:33N 36°19' E 025°42'10 9.8
2015-Jun-29 14:33N 36°19' E 025°29'8 8.4
2015-Jun-29 13:33N 36°24' E 025°21'4 0.5
2015-Jun-29 06:31N 36°25' E 025°25'0 0.0
2015-Jun-29 05:31N 36°25' E 025°25'0 0.0
2015-Jun-29 04:33N 36°25' E 025°25'6 5.9
2015-Jun-29 03:32N 36°29' E 025°20'6 5.8
2015-Jun-29 02:33N 36°35' E 025°17'36 6.8
2015-Jun-28 21:17N 37°05' E 024°53'6 8.4
2015-Jun-28 20:33N 37°11' E 024°55'6 6.1
2015-Jun-28 19:33N 37°15' E 024°60'8 8.4
2015-Jun-28 18:33N 37°22' E 025°06'8 8.2
2015-Jun-28 17:33N 37°27' E 025°14'4 3.9
2015-Jun-28 16:33N 37°27' E 025°19'0 0.0
2015-Jun-28 15:33N 37°27' E 025°19'0 0.0
2015-Jun-28 14:33N 37°27' E 025°19'0 0.0
2015-Jun-28 13:33N 37°27' E 025°19'0 0.0
2015-Jun-28 12:33N 37°27' E 025°19'0 0.0
2015-Jun-28 11:33N 37°27' E 025°19'0 0.0
2015-Jun-28 10:34N 37°27' E 025°19'0 0.0
2015-Jun-28 09:33N 37°27' E 025°19'0 0.0
2015-Jun-28 08:33N 37°27' E 025°19'0 0.0
2015-Jun-28 07:33N 37°27' E 025°19'0 0.0
2015-Jun-28 06:33N 37°27' E 025°19'0 0.0
2015-Jun-28 05:33N 37°27' E 025°19'0 0.0
2015-Jun-28 04:33N 37°27' E 025°19'3 2.5
2015-Jun-28 03:33N 37°28' E 025°16'5 5.5
2015-Jun-28 02:34N 37°29' E 025°10'5 4.9
2015-Jun-28 01:33N 37°30' E 025°04'6 6.4
2015-Jun-28 00:34N 37°32' E 024°56'7 7.0
2015-Jun-27 23:33N 37°31' E 024°47'41 6.9
2015-Jun-27 17:32N 37°38' E 023°56'6 6.5
2015-Jun-27 16:33N 37°39' E 023°47'8 8.1
2015-Jun-27 15:33N 37°44' E 023°40'1010.0
2015-Jun-27 14:34N 37°54' E 023°37'3 2.9
2015-Jun-27 13:33N 37°56' E 023°38'0 0.0
2015-Jun-27 12:33N 37°56' E 023°38'0 0.0
2015-Jun-27 11:33N 37°56' E 023°38'0 0.0
2015-Jun-27 10:33N 37°56' E 023°38'0 0.0
2015-Jun-27 09:33N 37°56' E 023°38'0 0.0
2015-Jun-27 08:33N 37°56' E 023°38'0 0.0
2015-Jun-27 07:33N 37°56' E 023°38'0 0.0
2015-Jun-27 06:33N 37°56' E 023°38'0 0.0
2015-Jun-27 05:33N 37°56' E 023°38'0 0.0
2015-Jun-27 04:33N 37°56' E 023°38'2 2.1
2015-Jun-27 03:33N 37°55' E 023°36'4 3.7
2015-Jun-27 02:33N 37°52' E 023°39'7 6.9
2015-Jun-27 01:33N 37°45' E 023°42'7 7.5
2015-Jun-27 00:33N 37°39' E 023°47'46 6.6
2015-Jun-26 17:33N 37°31' E 024°44'9 7.9
2015-Jun-26 16:27N 37°32' E 024°55'7 7.8
2015-Jun-26 15:33N 37°30' E 025°04'9 8.6
2015-Jun-26 14:33N 37°28' E 025°14'4 4.0
2015-Jun-26 13:31N 37°27' E 025°19'0 0.0
2015-Jun-26 12:31N 37°27' E 025°19'0 0.0
2015-Jun-26 11:31N 37°27' E 025°19'0 0.0
2015-Jun-26 10:31N 37°27' E 025°19'0 0.0
2015-Jun-26 09:31N 37°27' E 025°19'0 0.0
2015-Jun-26 08:31N 37°27' E 025°19'0 0.0
2015-Jun-26 07:31N 37°27' E 025°19'0 0.0
2015-Jun-26 06:31N 37°27' E 025°19'0 0.0
2015-Jun-26 05:31N 37°27' E 025°19'0 0.0
2015-Jun-26 04:31N 37°27' E 025°19'3 3.1
2015-Jun-26 03:33N 37°27' E 025°16'6 6.5
2015-Jun-26 02:33N 37°24' E 025°08'8 7.6
2015-Jun-26 01:33N 37°18' E 025°03'7 7.4
2015-Jun-26 00:33N 37°13' E 024°56'8 7.6
2015-Jun-25 23:28N 37°05' E 024°53'43 8.7
2015-Jun-25 18:33N 36°28' E 025°21'5 4.6
2015-Jun-25 17:31N 36°25' E 025°25'0 0.0
2015-Jun-25 16:33N 36°25' E 025°25'0 0.0
2015-Jun-25 15:33N 36°25' E 025°25'0 0.2
2015-Jun-25 14:32N 36°25' E 025°25'0 0.0
2015-Jun-25 13:27N 36°25' E 025°25'1 0.7
2015-Jun-25 12:32N 36°25' E 025°25'0 0.0
2015-Jun-25 11:28N 36°25' E 025°25'0 0.1
2015-Jun-25 10:32N 36°25' E 025°25'0 0.1
2015-Jun-25 09:33N 36°25' E 025°25'0 0.1
2015-Jun-25 08:33N 36°25' E 025°25'0 0.0
2015-Jun-25 07:33N 36°25' E 025°25'0 0.0
2015-Jun-25 06:33N 36°25' E 025°25'0 0.0
2015-Jun-25 05:33N 36°25' E 025°25'1 0.7
2015-Jun-25 04:32N 36°25' E 025°24'6 4.7
2015-Jun-25 03:15N 36°31' E 025°25'6 8.6
2015-Jun-25 02:33N 36°33' E 025°33'9 9.2
2015-Jun-25 01:32N 36°35' E 025°44'9 9.0
2015-Jun-25 00:33N 36°38' E 025°54'9 8.7
2015-Jun-24 23:33N 36°41' E 026°05'10 9.1
2015-Jun-24 22:30N 36°43' E 026°16'10 8.5
2015-Jun-24 21:20N 36°46' E 026°28'9 9.0
2015-Jun-24 20:20N 36°48' E 026°39'  
Track history (hours):
 
Tides and Currents Weather Stations Pressure Air Temp Water Temp Dewpoint Dewpoint Depression Visibility Wind Speed Wind Dir Waves Ship Positions

Wind Star

Operator: Holland America Line

Last reported at 2015-Jul-01 19:26 UTC. Time now 2015-Jul-04 15:18 UTC.
Position N 36°58' E 027°14'.

Length 134 m; draft 4.1 m.

Type: Ship. MMSI: 309163000.

Date/timePositionNaut miles runAvg speedWind from/ knotsBaromVisibWave heightAir tempDewpointWater temp
2015-Jul-01 19:26N 36°58' E 027°14'75 1.5
2015-Jun-29 16:33N 36°20' E 025°54'10 9.9
2015-Jun-29 15:33N 36°19' E 025°42'10 9.8
2015-Jun-29 14:33N 36°19' E 025°29'8 8.4
2015-Jun-29 13:33N 36°24' E 025°21'4 0.5
2015-Jun-29 06:31N 36°25' E 025°25'0 0.0
2015-Jun-29 05:31N 36°25' E 025°25'0 0.0
2015-Jun-29 04:33N 36°25' E 025°25'6 5.9
2015-Jun-29 03:32N 36°29' E 025°20'6 5.8
2015-Jun-29 02:33N 36°35' E 025°17'36 6.8
2015-Jun-28 21:17N 37°05' E 024°53'6 8.4
2015-Jun-28 20:33N 37°11' E 024°55'6 6.1
2015-Jun-28 19:33N 37°15' E 024°60'8 8.4
2015-Jun-28 18:33N 37°22' E 025°06'8 8.2
2015-Jun-28 17:33N 37°27' E 025°14'4 3.9
2015-Jun-28 16:33N 37°27' E 025°19'0 0.0
2015-Jun-28 15:33N 37°27' E 025°19'0 0.0
2015-Jun-28 14:33N 37°27' E 025°19'0 0.0
2015-Jun-28 13:33N 37°27' E 025°19'0 0.0
2015-Jun-28 12:33N 37°27' E 025°19'0 0.0
2015-Jun-28 11:33N 37°27' E 025°19'0 0.0
2015-Jun-28 10:34N 37°27' E 025°19'0 0.0
2015-Jun-28 09:33N 37°27' E 025°19'0 0.0
2015-Jun-28 08:33N 37°27' E 025°19'0 0.0
2015-Jun-28 07:33N 37°27' E 025°19'0 0.0
2015-Jun-28 06:33N 37°27' E 025°19'0 0.0
2015-Jun-28 05:33N 37°27' E 025°19'0 0.0
2015-Jun-28 04:33N 37°27' E 025°19'3 2.5
2015-Jun-28 03:33N 37°28' E 025°16'5 5.5
2015-Jun-28 02:34N 37°29' E 025°10'5 4.9
2015-Jun-28 01:33N 37°30' E 025°04'6 6.4
2015-Jun-28 00:34N 37°32' E 024°56'7 7.0
2015-Jun-27 23:33N 37°31' E 024°47'41 6.9
2015-Jun-27 17:32N 37°38' E 023°56'6 6.5
2015-Jun-27 16:33N 37°39' E 023°47'8 8.1
2015-Jun-27 15:33N 37°44' E 023°40'1010.0
2015-Jun-27 14:34N 37°54' E 023°37'3 2.9
2015-Jun-27 13:33N 37°56' E 023°38'0 0.0
2015-Jun-27 12:33N 37°56' E 023°38'0 0.0
2015-Jun-27 11:33N 37°56' E 023°38'0 0.0
2015-Jun-27 10:33N 37°56' E 023°38'0 0.0
2015-Jun-27 09:33N 37°56' E 023°38'0 0.0
2015-Jun-27 08:33N 37°56' E 023°38'0 0.0
2015-Jun-27 07:33N 37°56' E 023°38'0 0.0
2015-Jun-27 06:33N 37°56' E 023°38'0 0.0
2015-Jun-27 05:33N 37°56' E 023°38'0 0.0
2015-Jun-27 04:33N 37°56' E 023°38'2 2.1
2015-Jun-27 03:33N 37°55' E 023°36'4 3.7
2015-Jun-27 02:33N 37°52' E 023°39'7 6.9
2015-Jun-27 01:33N 37°45' E 023°42'7 7.5
2015-Jun-27 00:33N 37°39' E 023°47'46 6.6
2015-Jun-26 17:33N 37°31' E 024°44'9 7.9
2015-Jun-26 16:27N 37°32' E 024°55'7 7.8
2015-Jun-26 15:33N 37°30' E 025°04'9 8.6
2015-Jun-26 14:33N 37°28' E 025°14'4 4.0
2015-Jun-26 13:31N 37°27' E 025°19'0 0.0
2015-Jun-26 12:31N 37°27' E 025°19'0 0.0
2015-Jun-26 11:31N 37°27' E 025°19'0 0.0
2015-Jun-26 10:31N 37°27' E 025°19'0 0.0
2015-Jun-26 09:31N 37°27' E 025°19'0 0.0
2015-Jun-26 08:31N 37°27' E 025°19'0 0.0
2015-Jun-26 07:31N 37°27' E 025°19'0 0.0
2015-Jun-26 06:31N 37°27' E 025°19'0 0.0
2015-Jun-26 05:31N 37°27' E 025°19'0 0.0
2015-Jun-26 04:31N 37°27' E 025°19'3 3.1
2015-Jun-26 03:33N 37°27' E 025°16'6 6.5
2015-Jun-26 02:33N 37°24' E 025°08'8 7.6
2015-Jun-26 01:33N 37°18' E 025°03'7 7.4
2015-Jun-26 00:33N 37°13' E 024°56'8 7.6
2015-Jun-25 23:28N 37°05' E 024°53'43 8.7
2015-Jun-25 18:33N 36°28' E 025°21'5 4.6
2015-Jun-25 17:31N 36°25' E 025°25'0 0.0
2015-Jun-25 16:33N 36°25' E 025°25'0 0.0
2015-Jun-25 15:33N 36°25' E 025°25'0 0.2
2015-Jun-25 14:32N 36°25' E 025°25'0 0.0
2015-Jun-25 13:27N 36°25' E 025°25'1 0.7
2015-Jun-25 12:32N 36°25' E 025°25'0 0.0
2015-Jun-25 11:28N 36°25' E 025°25'0 0.1
2015-Jun-25 10:32N 36°25' E 025°25'0 0.1
2015-Jun-25 09:33N 36°25' E 025°25'0 0.1
2015-Jun-25 08:33N 36°25' E 025°25'0 0.0
2015-Jun-25 07:33N 36°25' E 025°25'0 0.0
2015-Jun-25 06:33N 36°25' E 025°25'0 0.0
2015-Jun-25 05:33N 36°25' E 025°25'1 0.7
2015-Jun-25 04:32N 36°25' E 025°24'6 4.7
2015-Jun-25 03:15N 36°31' E 025°25'6 8.6
2015-Jun-25 02:33N 36°33' E 025°33'9 9.2
2015-Jun-25 01:32N 36°35' E 025°44'9 9.0
2015-Jun-25 00:33N 36°38' E 025°54'9 8.7
2015-Jun-24 23:33N 36°41' E 026°05'10 9.1
2015-Jun-24 22:30N 36°43' E 026°16'10 8.5
2015-Jun-24 21:20N 36°46' E 026°28'9 9.0
2015-Jun-24 20:20N 36°48' E 026°39'  

Dump ship's entire track history